Disclaimer

Please do not use the information listed here in-flight or in-navigation, as they are not provided to us by the airports but are provided by volunteers, so they might be outdated.

Search


Regions


Airport information page

Radio informations:
Tower (TWR) - 119.4 MHz

Airport informations:
Latitude: 65° 46' 54.80" N
Longitude: 024° 35' 56.76" E
Elevation: 61 feet - 19 meters
Operating hours: N/A
Operating agency: Civil government, landing fees and diplomatic clearance may be required
Timezone: UTC+2(+3DT) - Last Sunday in March to last Sunday in October
Fuel: Jet A1, without icing nhibitor.

100/130 MIL Spec, low lead, aviation gasoline (BLUE)

Runway information:
18/36 - 8212 x 157 feet< - >2503 x 48 meters

Recent METARs:
EFKE 211820Z 27002KT CAVOK M06/M08 Q1022
EFKE 211850Z VRB01KT CAVOK M06/M08 Q1022
EFKE 211920Z 29009KT CAVOK M06/M08 Q1022

Airport on the map: